Time;durP1;ratioP1;P1;durP2;ratioP2;P2;SDS_P1;SDS_P2;PMS_P1;PMS_P2;Temp;Humidity;BMP_temperature;BMP_pressure;BME280_temperature;BME280_humidity;BME280_pressure;Samples;Min_cycle;Max_cycle;Signal;HPM_P1;HPM_P2
2022/05/19 00:01:55;;;;;;;5.33;4.93;;;20.30;99.90;;;;;;5002946;28;20230;-56
2022/05/19 00:04:22;;;;;;;5.80;5.40;;;20.20;99.90;;;;;;5017426;28;20203;-54
2022/05/19 00:06:49;;;;;;;5.60;5.03;;;20.10;99.90;;;;;;5031034;28;20223;-57
2022/05/19 00:09:16;;;;;;;5.50;4.67;;;20.10;99.90;;;;;;5025552;28;20215;-52
2022/05/19 00:11:43;;;;;;;6.03;5.60;;;20.10;99.90;;;;;;5024385;28;20884;-50
2022/05/19 00:14:13;;;;;;;6.07;5.43;;;20.00;99.90;;;;;;5020450;28;20572;-50
2022/05/19 00:16:40;;;;;;;7.23;5.50;;;20.00;99.90;;;;;;5013221;28;20231;-48
2022/05/19 00:19:07;;;;;;;5.53;5.10;;;20.00;99.90;;;;;;5026240;28;20210;-52
2022/05/19 00:21:34;;;;;;;9.63;5.73;;;19.90;99.90;;;;;;5022177;28;20223;-50
2022/05/19 00:24:00;;;;;;;5.50;5.07;;;19.90;99.90;;;;;;5025487;28;20688;-52
2022/05/19 00:26:27;;;;;;;5.93;5.43;;;19.90;99.90;;;;;;5031700;28;20223;-53
2022/05/19 00:28:54;;;;;;;5.83;5.30;;;19.90;99.90;;;;;;5024289;28;20215;-47
2022/05/19 00:31:22;;;;;;;5.97;5.47;;;19.80;99.90;;;;;;5019201;28;20230;-51
2022/05/19 00:33:48;;;;;;;5.60;5.20;;;19.80;99.90;;;;;;5009026;28;20211;-48
2022/05/19 00:36:19;;;;;;;7.40;5.47;;;19.80;99.90;;;;;;5020573;28;20231;-51
2022/05/19 00:38:46;;;;;;;5.67;5.30;;;19.80;99.90;;;;;;5024048;28;20211;-48
2022/05/19 00:41:14;;;;;;;6.60;6.00;;;19.70;99.90;;;;;;5025776;28;20208;-49
2022/05/19 00:43:47;;;;;;;5.90;5.50;;;19.70;99.90;;;;;;5029480;28;20274;-48
2022/05/19 00:46:19;;;;;;;6.70;5.00;;;19.70;99.90;;;;;;5019350;28;20231;-52
2022/05/19 00:48:53;;;;;;;6.67;6.07;;;19.60;99.90;;;;;;5007431;28;20297;-47
2022/05/19 00:51:25;;;;;;;6.27;5.77;;;19.60;99.90;;;;;;5018416;28;20226;-54
2022/05/19 00:53:55;;;;;;;6.13;5.70;;;19.50;99.90;;;;;;5032034;28;20200;-50
2022/05/19 00:56:28;;;;;;;5.90;5.40;;;19.50;99.90;;;;;;5023557;28;20215;-53
2022/05/19 00:59:00;;;;;;;5.73;5.17;;;19.50;99.90;;;;;;5028418;28;20212;-51
2022/05/19 01:01:26;;;;;;;6.70;5.23;;;19.40;99.90;;;;;;5017984;28;20226;-49
2022/05/19 01:04:00;;;;;;;5.43;5.13;;;19.40;99.90;;;;;;5007914;28;20215;-46
2022/05/19 01:06:30;;;;;;;6.00;5.50;;;19.30;99.90;;;;;;5009843;28;20933;-46
2022/05/19 01:09:02;;;;;;;7.20;5.80;;;19.30;99.90;;;;;;5026492;28;20207;-46
2022/05/19 01:11:30;;;;;;;5.97;5.47;;;19.30;99.90;;;;;;5023125;28;20263;-46
2022/05/19 01:13:57;;;;;;;7.33;5.87;;;19.30;99.90;;;;;;5025070;28;20286;-46
2022/05/19 01:16:25;;;;;;;6.50;5.80;;;19.30;99.90;;;;;;5020342;28;20226;-45
2022/05/19 01:18:51;;;;;;;6.00;5.40;;;19.30;99.90;;;;;;5011301;28;20204;-46
2022/05/19 01:21:23;;;;;;;5.87;5.37;;;19.30;99.90;;;;;;5021120;28;20652;-48
2022/05/19 01:24:07;;;;;;;5.87;5.23;;;19.30;99.90;;;;;;5026042;28;20207;-50
2022/05/19 01:26:41;;;;;;;6.30;5.80;;;19.20;99.90;;;;;;5021204;28;21001;-44
2022/05/19 01:29:10;;;;;;;5.87;5.50;;;19.20;99.90;;;;;;5031057;28;20199;-45
2022/05/19 01:31:44;;;;;;;6.20;5.60;;;19.10;99.90;;;;;;5015747;28;20244;-49
2022/05/19 01:34:11;;;;;;;6.13;5.57;;;19.10;99.90;;;;;;5010699;28;20208;-51
2022/05/19 01:36:39;;;;;;;5.97;5.47;;;19.10;99.90;;;;;;5015056;28;21737;-50
2022/05/19 01:39:08;;;;;;;6.93;5.50;;;19.10;99.90;;;;;;5024927;28;20557;-45
2022/05/19 01:41:59;;;;;;;7.03;6.00;;;19.00;99.90;;;;;;5022147;28;20222;-46
2022/05/19 01:44:38;;;;;;;6.30;5.80;;;19.00;99.90;;;;;;5018881;28;20235;-48
2022/05/19 01:47:09;;;;;;;5.70;5.10;;;19.00;99.90;;;;;;5025883;28;20603;-45
2022/05/19 01:49:42;;;;;;;6.07;5.57;;;19.00;99.90;;;;;;5003051;28;20204;-47
2022/05/19 01:52:17;;;;;;;6.93;6.43;;;19.00;99.90;;;;;;5022650;28;20203;-48
2022/05/19 01:54:58;;;;;;;6.57;5.97;;;18.90;99.90;;;;;;5023772;28;20703;-48
2022/05/19 01:57:31;;;;;;;6.60;6.00;;;18.90;99.90;;;;;;5015114;28;20222;-47
2022/05/19 02:00:06;;;;;;;6.27;5.67;;;18.90;99.90;;;;;;5030271;28;20278;-50
2022/05/19 02:02:47;;;;;;;7.37;6.03;;;18.90;99.90;;;;;;5019861;28;20318;-55
2022/05/19 02:05:22;;;;;;;6.60;6.00;;;18.80;99.90;;;;;;5010551;28;20688;-55
2022/05/19 02:07:55;;;;;;;7.90;5.77;;;18.80;99.90;;;;;;5017547;28;20232;-52
2022/05/19 02:10:26;;;;;;;6.00;5.60;;;18.90;99.90;;;;;;5024561;28;20587;-52
2022/05/19 02:12:56;;;;;;;6.47;5.87;;;18.90;99.90;;;;;;5031498;28;20699;-49
2022/05/19 02:15:27;;;;;;;6.33;5.80;;;18.80;99.90;;;;;;5024002;28;20223;-50
2022/05/19 02:17:55;;;;;;;6.47;5.87;;;18.80;99.90;;;;;;5029960;28;20857;-49
2022/05/19 02:20:25;;;;;;;7.30;5.90;;;18.80;99.90;;;;;;5002038;28;20672;-54
2022/05/19 02:22:52;;;;;;;7.00;6.30;;;18.80;99.90;;;;;;5014760;28;20557;-48
2022/05/19 02:25:23;;;;;;;6.67;5.93;;;18.80;99.90;;;;;;5019525;28;20207;-48
2022/05/19 02:27:57;;;;;;;6.93;6.30;;;18.70;99.90;;;;;;5027605;28;20247;-46
2022/05/19 02:30:26;;;;;;;6.23;5.67;;;18.70;99.90;;;;;;5020572;28;20204;-62
2022/05/19 02:32:53;;;;;;;6.27;5.50;;;18.70;99.90;;;;;;5032533;28;20196;-60
2022/05/19 02:35:21;;;;;;;8.33;6.17;;;18.70;99.90;;;;;;5003463;28;20576;-58
2022/05/19 02:37:48;;;;;;;6.37;5.77;;;18.70;99.90;;;;;;5017153;28;20219;-58
2022/05/19 02:40:17;;;;;;;6.43;5.87;;;18.70;99.90;;;;;;5031197;28;20253;-58
2022/05/19 02:42:45;;;;;;;6.70;6.03;;;18.60;99.90;;;;;;5028055;28;20246;-56
2022/05/19 02:45:15;;;;;;;7.03;6.13;;;18.60;99.90;;;;;;5021741;28;20196;-61
2022/05/19 02:47:43;;;;;;;6.63;6.13;;;18.60;99.90;;;;;;5022924;28;20474;-56
2022/05/19 02:50:12;;;;;;;6.67;6.07;;;18.50;99.90;;;;;;5011800;28;20322;-60
2022/05/19 02:52:39;;;;;;;6.20;5.63;;;18.50;99.90;;;;;;5012721;28;20198;-58
2022/05/19 02:55:07;;;;;;;6.97;6.30;;;18.50;99.90;;;;;;5017628;28;20212;-60
2022/05/19 02:57:34;;;;;;;6.50;6.00;;;18.50;99.90;;;;;;5020873;28;20216;-56
2022/05/19 03:00:01;;;;;;;6.80;6.20;;;18.40;99.90;;;;;;5026333;28;20668;-59
2022/05/19 03:02:53;;;;;;;6.63;6.03;;;18.40;99.90;;;;;;5025981;28;20583;-55
2022/05/19 03:05:23;;;;;;;6.63;6.13;;;18.40;99.90;;;;;;5015059;28;20207;-59
2022/05/19 03:07:50;;;;;;;6.57;6.03;;;18.40;99.90;;;;;;5003633;28;20859;-61
2022/05/19 03:10:17;;;;;;;8.23;6.37;;;18.40;99.90;;;;;;5018870;28;20204;-59
2022/05/19 03:12:44;;;;;;;6.93;5.87;;;18.40;99.90;;;;;;5029896;28;20653;-56
2022/05/19 03:15:12;;;;;;;6.93;6.37;;;18.30;99.90;;;;;;5025125;28;20207;-56
2022/05/19 03:17:39;;;;;;;7.37;5.57;;;18.30;99.90;;;;;;5025617;28;20215;-58
2022/05/19 03:20:10;;;;;;;6.80;6.20;;;18.20;99.90;;;;;;5040420;28;20195;-56
2022/05/19 03:22:36;;;;;;;6.87;6.17;;;18.20;99.90;;;;;;5002536;28;20229;-53
2022/05/19 03:25:05;;;;;;;6.90;5.60;;;18.20;99.90;;;;;;5018178;28;20200;-50
2022/05/19 03:27:32;;;;;;;6.83;6.20;;;18.20;99.90;;;;;;5025021;28;20235;-51
2022/05/19 03:29:59;;;;;;;6.67;6.03;;;18.20;99.90;;;;;;5024333;28;20204;-49
2022/05/19 03:32:25;;;;;;;6.30;5.90;;;18.20;99.90;;;;;;5018280;28;20189;-50
2022/05/19 03:34:52;;;;;;;7.00;6.20;;;18.20;99.90;;;;;;5022638;28;20253;-48
2022/05/19 03:37:20;;;;;;;7.10;6.40;;;18.20;99.90;;;;;;5006608;28;20274;-53
2022/05/19 03:39:47;;;;;;;6.50;6.00;;;18.10;99.90;;;;;;5024652;28;20686;-52
2022/05/19 03:42:13;;;;;;;6.87;6.27;;;18.10;99.90;;;;;;5016553;28;20750;-54
2022/05/19 03:44:41;;;;;;;6.60;6.00;;;18.10;99.90;;;;;;5024213;28;20340;-49
2022/05/19 03:47:08;;;;;;;6.83;6.27;;;18.00;99.90;;;;;;5023984;28;20273;-51
2022/05/19 03:49:35;;;;;;;6.70;6.10;;;18.00;99.90;;;;;;5024981;28;20195;-50
2022/05/19 03:52:04;;;;;;;6.93;6.43;;;18.00;99.90;;;;;;5018968;28;20665;-48
2022/05/19 03:54:31;;;;;;;7.47;6.97;;;18.00;99.90;;;;;;5010649;28;20322;-51
2022/05/19 03:56:58;;;;;;;7.97;6.20;;;17.90;99.90;;;;;;5022675;28;20232;-47
2022/05/19 03:59:25;;;;;;;6.77;6.17;;;17.90;99.90;;;;;;5026346;28;20899;-51
2022/05/19 04:01:52;;;;;;;7.67;6.60;;;17.90;99.90;;;;;;5023907;28;20208;-50
2022/05/19 04:04:19;;;;;;;7.63;6.93;;;17.90;99.90;;;;;;5028045;28;20235;-48
2022/05/19 04:06:46;;;;;;;7.40;6.70;;;17.90;99.90;;;;;;5018777;28;20234;-49
2022/05/19 04:09:13;;;;;;;7.57;6.90;;;17.90;99.90;;;;;;5017931;28;20283;-52
2022/05/19 04:11:41;;;;;;;17.73;15.63;;;17.90;99.90;;;;;;5012271;28;20196;-47
2022/05/19 04:14:09;;;;;;;34.77;26.13;;;17.90;99.90;;;;;;5024239;28;20207;-48
2022/05/19 04:16:36;;;;;;;8.70;7.87;;;17.90;99.90;;;;;;5027392;28;20215;-48
2022/05/19 04:19:04;;;;;;;7.70;7.10;;;17.90;99.90;;;;;;5023212;28;20188;-48
2022/05/19 04:21:32;;;;;;;9.07;7.13;;;17.90;99.90;;;;;;5033196;28;20199;-50
2022/05/19 04:23:59;;;;;;;8.37;7.53;;;17.90;99.90;;;;;;5020410;28;21004;-48
2022/05/19 04:26:27;;;;;;;11.20;10.07;;;17.90;99.90;;;;;;5008672;28;20228;-51
2022/05/19 04:28:55;;;;;;;15.20;12.33;;;17.90;99.90;;;;;;5022235;28;20763;-49
2022/05/19 04:31:22;;;;;;;17.07;11.63;;;17.90;99.90;;;;;;5011488;28;20669;-47
2022/05/19 04:33:49;;;;;;;8.73;6.77;;;17.90;99.90;;;;;;5024830;28;20226;-47
2022/05/19 04:36:16;;;;;;;7.73;6.77;;;17.90;99.90;;;;;;5016530;28;20723;-55
2022/05/19 04:38:43;;;;;;;7.43;6.73;;;18.00;99.90;;;;;;5023693;28;20290;-52
2022/05/19 04:41:09;;;;;;;7.43;6.70;;;18.00;99.90;;;;;;5013173;28;20212;-44
2022/05/19 04:43:37;;;;;;;7.57;6.90;;;18.00;99.90;;;;;;5027472;28;20989;-43
2022/05/19 04:46:05;;;;;;;7.00;6.30;;;18.10;99.90;;;;;;5025426;28;20203;-40
2022/05/19 04:48:35;;;;;;;7.70;6.97;;;18.10;99.90;;;;;;5008704;28;20290;-44
2022/05/19 04:51:02;;;;;;;7.17;6.57;;;18.20;99.90;;;;;;5022238;28;20196;-44
2022/05/19 04:53:29;;;;;;;8.00;7.03;;;18.20;99.90;;;;;;5019520;28;20206;-42
2022/05/19 04:55:57;;;;;;;8.47;7.53;;;18.30;99.90;;;;;;5011143;28;24233;-42
2022/05/19 04:58:24;;;;;;;7.60;6.53;;;18.30;99.90;;;;;;5019474;28;20204;-42
2022/05/19 05:00:52;;;;;;;8.57;7.03;;;18.40;99.90;;;;;;5014047;28;20205;-45
2022/05/19 05:03:21;;;;;;;7.60;6.83;;;18.50;99.90;;;;;;5024143;28;20231;-44
2022/05/19 05:05:48;;;;;;;10.23;6.47;;;18.50;99.90;;;;;;5020982;28;20543;-41
2022/05/19 05:08:15;;;;;;;7.60;6.90;;;18.60;99.90;;;;;;5023591;28;20196;-42
2022/05/19 05:10:42;;;;;;;9.20;6.73;;;18.60;99.90;;;;;;5024863;28;20221;-45
2022/05/19 05:13:12;;;;;;;7.93;6.70;;;18.70;99.90;;;;;;5004004;28;21345;-42
2022/05/19 05:15:41;;;;;;;8.03;7.00;;;18.80;99.90;;;;;;5021948;28;20298;-46
2022/05/19 05:18:08;;;;;;;8.67;7.10;;;18.80;99.90;;;;;;5007328;28;20291;-43
2022/05/19 05:20:39;;;;;;;7.53;6.93;;;18.90;99.90;;;;;;5019697;28;20661;-45
2022/05/19 05:23:06;;;;;;;7.53;6.83;;;19.00;99.90;;;;;;5017543;28;20235;-44
2022/05/19 05:25:35;;;;;;;7.70;6.87;;;19.00;99.90;;;;;;5022778;28;20228;-44
2022/05/19 05:28:03;;;;;;;6.90;6.30;;;19.10;99.90;;;;;;4991789;28;20231;-46
2022/05/19 05:30:30;;;;;;;10.27;7.27;;;19.10;99.90;;;;;;5023628;28;20196;-44
2022/05/19 05:33:02;;;;;;;7.00;6.30;;;19.20;99.90;;;;;;5011606;28;20200;-44
2022/05/19 05:35:30;;;;;;;8.03;7.10;;;19.20;99.90;;;;;;5021617;28;20242;-46
2022/05/19 05:37:58;;;;;;;8.80;6.90;;;19.30;99.90;;;;;;5013079;28;20307;-46
2022/05/19 05:40:26;;;;;;;7.07;6.37;;;19.30;99.90;;;;;;5023455;28;20203;-44
2022/05/19 05:42:53;;;;;;;10.13;6.33;;;19.40;99.90;;;;;;5009798;28;20269;-43
2022/05/19 05:45:20;;;;;;;7.07;6.00;;;19.40;99.90;;;;;;5022343;28;20203;-44
2022/05/19 05:47:47;;;;;;;7.97;5.90;;;19.50;99.90;;;;;;5024715;28;20219;-44
2022/05/19 05:50:14;;;;;;;7.30;6.60;;;19.60;99.90;;;;;;5014928;28;20199;-44
2022/05/19 05:52:41;;;;;;;12.43;6.80;;;19.70;99.90;;;;;;5026922;28;20615;-45
2022/05/19 05:55:10;;;;;;;10.13;6.17;;;19.70;99.90;;;;;;5015746;28;20208;-42
2022/05/19 05:57:37;;;;;;;7.20;6.23;;;19.80;99.90;;;;;;5026768;28;20676;-43
2022/05/19 06:00:05;;;;;;;7.10;6.50;;;19.90;99.90;;;;;;4999852;28;20218;-43
2022/05/19 06:02:39;;;;;;;9.47;7.60;;;20.00;99.90;;;;;;5022120;28;20204;-43
2022/05/19 06:05:06;;;;;;;9.67;6.33;;;20.00;99.90;;;;;;5022285;28;20212;-47
2022/05/19 06:07:33;;;;;;;7.17;6.40;;;20.10;99.90;;;;;;5019196;28;20221;-42
2022/05/19 06:10:00;;;;;;;7.27;6.63;;;20.10;99.90;;;;;;5014244;28;20200;-43
2022/05/19 06:12:29;;;;;;;7.53;5.93;;;20.20;99.90;;;;;;5018293;28;20218;-42
2022/05/19 06:14:56;;;;;;;7.50;6.00;;;20.30;99.90;;;;;;4997102;28;20204;-44
2022/05/19 06:17:23;;;;;;;6.50;5.90;;;20.40;99.90;;;;;;5019945;28;20370;-42
2022/05/19 06:19:50;;;;;;;7.17;5.87;;;20.50;99.90;;;;;;5010934;28;20298;-45
2022/05/19 06:22:17;;;;;;;6.87;6.03;;;20.60;99.90;;;;;;5020214;28;20653;-44
2022/05/19 06:24:45;;;;;;;7.97;6.10;;;20.60;99.90;;;;;;5015690;28;20722;-42
2022/05/19 06:27:11;;;;;;;6.20;5.70;;;20.70;99.90;;;;;;5014677;28;20257;-44
2022/05/19 06:29:39;;;;;;;6.57;6.07;;;20.70;99.90;;;;;;5008463;28;22178;-44
2022/05/19 06:32:07;;;;;;;6.50;5.43;;;20.80;99.90;;;;;;5009284;28;20199;-45
2022/05/19 06:34:34;;;;;;;6.00;5.40;;;20.80;99.90;;;;;;5016247;28;20685;-44
2022/05/19 06:37:02;;;;;;;9.80;5.77;;;20.90;99.90;;;;;;5026880;28;20235;-44
2022/05/19 06:39:29;;;;;;;10.20;6.33;;;20.90;99.90;;;;;;5013506;28;20207;-44
2022/05/19 06:42:02;;;;;;;8.03;5.47;;;21.00;99.90;;;;;;5017492;28;20219;-44
2022/05/19 06:44:31;;;;;;;7.20;5.37;;;21.00;99.90;;;;;;4997950;28;20299;-43
2022/05/19 06:46:59;;;;;;;7.43;5.40;;;21.10;99.90;;;;;;5017037;28;20225;-44
2022/05/19 06:49:26;;;;;;;7.90;5.47;;;21.30;99.90;;;;;;4998610;28;20953;-43
2022/05/19 06:51:53;;;;;;;6.50;5.70;;;21.30;99.90;;;;;;5018321;28;20204;-46
2022/05/19 06:54:21;;;;;;;5.77;5.30;;;21.40;99.90;;;;;;5018070;28;20197;-47
2022/05/19 06:56:48;;;;;;;14.90;11.57;;;21.60;99.90;;;;;;5012755;28;20231;-46
2022/05/19 06:59:16;;;;;;;6.57;5.97;;;21.70;99.90;;;;;;5002654;28;20204;-47
2022/05/19 07:01:44;;;;;;;6.70;5.63;;;21.80;99.90;;;;;;5001308;28;20226;-45
2022/05/19 07:04:12;;;;;;;5.97;4.83;;;21.80;99.90;;;;;;5013122;28;20228;-44
2022/05/19 07:06:42;;;;;;;5.77;5.27;;;;;;;;;;5016410;28;20215;-46
2022/05/19 07:09:09;;;;;;;6.33;5.60;;;22.00;99.90;;;;;;5019399;28;20200;-48
2022/05/19 07:11:36;;;;;;;10.73;5.23;;;22.10;99.90;;;;;;5015462;28;20212;-45
2022/05/19 07:14:06;;;;;;;6.50;4.87;;;22.20;99.90;;;;;;5022314;28;20208;-45
2022/05/19 07:16:33;;;;;;;5.75;4.63;;;22.40;99.90;;;;;;5000965;28;20228;-47
2022/05/19 07:21:47;;;;;;;5.35;4.05;;;22.50;99.90;;;;;;5020918;28;20202;-47
2022/05/19 07:24:17;;;;;;;8.07;4.20;;;22.60;99.90;;;;;;5018893;28;20211;-49
2022/05/19 07:26:45;;;;;;;7.27;4.80;;;22.70;99.90;;;;;;5016096;28;20250;-51
2022/05/19 07:29:11;;;;;;;5.97;4.25;;;22.80;99.90;;;;;;5018871;28;20208;-50
2022/05/19 07:31:38;;;;;;;7.97;4.47;;;22.90;99.90;;;;;;5028956;28;20192;-45
2022/05/19 07:34:06;;;;;;;6.13;3.97;;;23.10;99.90;;;;;;5007559;28;20200;-51
2022/05/19 07:36:33;;;;;;;4.85;4.30;;;23.20;99.90;;;;;;5030069;28;20208;-49
2022/05/19 07:39:02;;;;;;;4.75;4.18;;;23.30;99.90;;;;;;5027522;28;20287;-46
2022/05/19 07:41:30;;;;;;;4.50;3.80;;;23.40;99.90;;;;;;5017380;28;20204;-46
2022/05/19 07:43:57;;;;;;;4.97;4.10;;;23.50;99.90;;;;;;5025378;28;20223;-45
2022/05/19 07:46:24;;;;;;;4.53;4.13;;;23.70;99.90;;;;;;5016442;28;20299;-47
2022/05/19 07:48:53;;;;;;;4.25;3.90;;;23.80;99.90;;;;;;5011660;28;20586;-44
2022/05/19 07:51:20;;;;;;;6.68;4.10;;;24.00;99.90;;;;;;5019687;28;20212;-47
2022/05/19 07:53:47;;;;;;;6.13;4.03;;;24.20;99.90;;;;;;5025164;28;20188;-48
2022/05/19 07:56:15;;;;;;;8.07;3.90;;;24.20;99.90;;;;;;5021234;28;20231;-46
2022/05/19 07:58:42;;;;;;;4.25;3.50;;;24.30;99.90;;;;;;5008687;28;20196;-50
2022/05/19 08:01:08;;;;;;;5.78;3.95;;;24.20;99.90;;;;;;5026919;28;20200;-49
2022/05/19 08:03:35;;;;;;;4.93;4.05;;;24.20;99.90;;;;;;5007579;28;20273;-46
2022/05/19 08:06:07;;;;;;;5.07;3.97;;;24.20;99.90;;;;;;5025983;28;20212;-48
2022/05/19 08:08:35;;;;;;;6.10;4.40;;;24.20;99.90;;;;;;5027170;28;20250;-47
2022/05/19 08:11:02;;;;;;;8.15;4.30;;;24.30;99.90;;;;;;5024810;28;20911;-49
2022/05/19 08:16:14;;;;;;;4.22;3.83;;;24.40;99.90;;;;;;5024113;28;20212;-46
2022/05/19 08:18:42;;;;;;;3.72;3.45;;;24.40;99.90;;;;;;5005110;28;20269;-50
2022/05/19 08:21:11;;;;;;;3.67;3.30;;;24.50;99.90;;;;;;5025595;28;20200;-49
2022/05/19 08:23:40;;;;;;;4.20;3.25;;;24.50;99.90;;;;;;5021560;28;20219;-48
2022/05/19 08:26:08;;;;;;;3.67;3.47;;;24.60;99.90;;;;;;5024898;28;20219;-45
2022/05/19 08:28:37;;;;;;;4.03;3.28;;;24.90;99.10;;;;;;5012046;28;20204;-49
2022/05/19 08:31:07;;;;;;;4.80;3.50;;;25.10;97.80;;;;;;5025601;28;20734;-47
2022/05/19 08:33:35;;;;;;;6.28;3.00;;;25.20;96.90;;;;;;5010195;28;20226;-49
2022/05/19 08:36:02;;;;;;;2.63;2.42;;;25.30;95.20;;;;;;5022746;28;20212;-46
2022/05/19 08:38:29;;;;;;;3.40;2.97;;;25.50;93.60;;;;;;5020406;28;20211;-48
2022/05/19 08:41:02;;;;;;;3.88;3.10;;;25.60;93.50;;;;;;5022949;28;20195;-44
2022/05/19 08:43:34;;;;;;;3.80;2.65;;;25.80;92.50;;;;;;5016216;28;20208;-49
2022/05/19 08:46:05;;;;;;;4.00;2.92;;;26.00;92.10;;;;;;5019678;28;20216;-47
2022/05/19 08:48:32;;;;;;;5.72;2.58;;;26.20;92.10;;;;;;5020922;28;20194;-50
2022/05/19 08:51:02;;;;;;;3.95;2.78;;;26.30;91.30;;;;;;5022333;28;20578;-45
2022/05/19 08:53:31;;;;;;;3.70;3.40;;;26.30;91.00;;;;;;5017656;28;20569;-47
2022/05/19 08:56:02;;;;;;;3.70;2.75;;;26.40;90.50;;;;;;5021678;28;20180;-45
2022/05/19 08:58:48;;;;;;;2.65;2.50;;;26.40;90.30;;;;;;5020228;28;20203;-46
2022/05/19 09:01:22;;;;;;;3.17;2.92;;;26.30;87.60;;;;;;5021569;28;20208;-45
2022/05/19 09:04:01;;;;;;;4.78;2.90;;;26.30;89.90;;;;;;5019660;28;20203;-45
2022/05/19 09:06:38;;;;;;;3.15;2.85;;;26.30;90.30;;;;;;5014556;28;20230;-48
2022/05/19 09:09:26;;;;;;;3.92;2.70;;;26.50;90.40;;;;;;5020892;28;20262;-47
2022/05/19 09:11:59;;;;;;;3.90;2.40;;;26.60;90.00;;;;;;5027091;28;20192;-45
2022/05/19 09:14:28;;;;;;;3.63;2.47;;;26.70;87.40;;;;;;5022745;28;20196;-49
2022/05/19 09:17:01;;;;;;;3.53;2.53;;;26.70;88.90;;;;;;5013533;28;20224;-45
2022/05/19 09:19:32;;;;;;;3.08;2.88;;;26.80;85.50;;;;;;5023487;28;20199;-45
2022/05/19 09:22:03;;;;;;;3.30;2.70;;;;;;;;;;5018200;28;20215;-45
2022/05/19 09:24:30;;;;;;;3.08;2.83;;;26.90;85.10;;;;;;5013846;28;20224;-47
2022/05/19 09:26:58;;;;;;;3.85;2.65;;;26.90;85.40;;;;;;5021923;28;20270;-47
2022/05/19 09:29:33;;;;;;;3.35;2.95;;;26.90;83.40;;;;;;5025089;28;20201;-45
2022/05/19 09:32:08;;;;;;;4.00;2.83;;;27.00;83.60;;;;;;5020341;28;20210;-45
2022/05/19 09:34:43;;;;;;;2.60;2.40;;;27.00;84.70;;;;;;5020382;28;20199;-48
2022/05/19 09:37:12;;;;;;;2.60;2.45;;;27.10;84.00;;;;;;5010759;28;20270;-46
2022/05/19 09:39:51;;;;;;;3.75;2.60;;;27.10;81.50;;;;;;5012888;28;20204;-48
2022/05/19 09:42:23;;;;;;;3.25;2.38;;;27.20;83.00;;;;;;5030064;28;20253;-45
2022/05/19 09:44:55;;;;;;;2.65;2.40;;;27.20;78.00;;;;;;5014195;28;20216;-48
2022/05/19 09:47:31;;;;;;;2.88;2.67;;;27.10;78.80;;;;;;5012796;28;20231;-45
2022/05/19 09:50:05;;;;;;;2.53;2.33;;;27.30;79.30;;;;;;5021121;28;20254;-47
2022/05/19 09:52:33;;;;;;;3.00;2.80;;;27.30;77.60;;;;;;5007151;28;20211;-48
2022/05/19 09:55:03;;;;;;;2.50;2.30;;;27.30;76.50;;;;;;5023419;28;20923;-45
2022/05/19 09:57:45;;;;;;;2.88;2.10;;;27.30;77.90;;;;;;5015117;28;20597;-51
2022/05/19 10:00:21;;;;;;;3.58;2.95;;;27.50;76.80;;;;;;5027514;28;20196;-47
2022/05/19 10:02:55;;;;;;;3.80;2.50;;;27.60;75.40;;;;;;5012293;28;20207;-50
2022/05/19 10:05:33;;;;;;;3.08;2.78;;;27.60;75.00;;;;;;5020028;28;20234;-47
2022/05/19 10:08:05;;;;;;;3.33;2.40;;;27.70;75.80;;;;;;5002884;28;20215;-45
2022/05/19 10:10:35;;;;;;;3.47;2.60;;;27.70;74.20;;;;;;5022581;28;20196;-49
2022/05/19 10:13:07;;;;;;;4.43;2.53;;;27.60;73.20;;;;;;5021780;28;20210;-47
2022/05/19 10:15:43;;;;;;;3.58;2.50;;;27.70;73.40;;;;;;5020614;28;20278;-49
2022/05/19 10:18:20;;;;;;;5.60;3.00;;;27.60;71.60;;;;;;4997638;28;20314;-45
2022/05/19 10:20:58;;;;;;;3.13;2.72;;;27.70;73.30;;;;;;5021091;28;20191;-50
2022/05/19 10:23:46;;;;;;;3.80;2.45;;;27.70;73.20;;;;;;5008338;28;20202;-48
2022/05/19 10:26:37;;;;;;;3.33;2.65;;;27.70;74.30;;;;;;5026815;28;20264;-46
2022/05/19 10:32:33;;;;;;;3.33;3.08;;;27.60;73.10;;;;;;5020491;28;20202;-49
2022/05/19 10:35:08;;;;;;;2.92;2.40;;;27.70;73.00;;;;;;5008512;28;20209;-49
2022/05/19 10:37:46;;;;;;;3.00;2.78;;;27.60;70.90;;;;;;5013753;28;20227;-47
2022/05/19 10:40:29;;;;;;;2.88;2.67;;;27.60;72.30;;;;;;5013153;28;20387;-51
2022/05/19 10:43:13;;;;;;;3.92;3.28;;;27.50;72.80;;;;;;5020316;28;20196;-48
2022/05/19 10:45:44;;;;;;;3.97;2.80;;;27.50;71.70;;;;;;5014528;28;20216;-48
2022/05/19 10:48:39;;;;;;;4.30;3.50;;;27.60;74.10;;;;;;5019739;28;20226;-48
2022/05/19 10:51:12;;;;;;;5.43;2.80;;;27.60;74.00;;;;;;5021894;28;20270;-47
2022/05/19 10:54:02;;;;;;;2.60;2.40;;;27.60;73.40;;;;;;5013644;28;20200;-49
2022/05/19 10:57:03;;;;;;;5.43;2.42;;;27.50;75.90;;;;;;5003600;28;20216;-52
2022/05/19 11:00:00;;;;;;;2.75;2.53;;;27.30;73.60;;;;;;4995402;28;20219;-55
2022/05/19 11:02:46;;;;;;;4.28;2.85;;;27.20;73.60;;;;;;5022675;28;20204;-51
2022/05/19 11:05:32;;;;;;;2.70;2.35;;;27.10;72.00;;;;;;5012748;28;20223;-53
2022/05/19 11:08:09;;;;;;;3.45;2.70;;;27.10;72.60;;;;;;5016856;28;20215;-48
2022/05/19 11:10:43;;;;;;;2.92;2.72;;;27.20;74.00;;;;;;5007804;28;20199;-53
2022/05/19 11:13:23;;;;;;;3.58;2.67;;;27.20;75.60;;;;;;5021939;28;20291;-52
2022/05/19 11:15:57;;;;;;;3.20;2.90;;;27.30;73.90;;;;;;5012876;28;20261;-51
2022/05/19 11:18:29;;;;;;;3.50;2.88;;;27.50;75.20;;;;;;5018381;28;20200;-48
2022/05/19 11:21:05;;;;;;;3.08;2.80;;;27.70;74.70;;;;;;5015085;28;20196;-47
2022/05/19 11:23:46;;;;;;;4.93;2.80;;;27.70;74.80;;;;;;5020347;28;20218;-49
2022/05/19 11:26:26;;;;;;;2.78;2.58;;;27.70;73.90;;;;;;5015500;28;20219;-52
2022/05/19 11:29:01;;;;;;;3.30;2.97;;;27.80;73.20;;;;;;5009480;28;20274;-52
2022/05/19 11:31:36;;;;;;;5.20;3.00;;;27.90;73.30;;;;;;5021588;28;20257;-51
2022/05/19 11:34:12;;;;;;;5.32;2.92;;;27.80;72.30;;;;;;5019439;28;20223;-54
2022/05/19 11:36:47;;;;;;;2.80;2.60;;;27.70;71.20;;;;;;5013666;28;20223;-50
2022/05/19 11:39:23;;;;;;;2.90;2.70;;;27.80;71.60;;;;;;5011406;28;20218;-52
2022/05/19 11:41:53;;;;;;;3.03;2.80;;;27.80;72.20;;;;;;4991271;28;20290;-51
2022/05/19 11:44:24;;;;;;;3.25;2.90;;;27.80;71.90;;;;;;5025124;28;20211;-53
2022/05/19 11:46:58;;;;;;;4.03;2.85;;;27.80;70.80;;;;;;5018945;28;20220;-52
2022/05/19 11:55:18;;;;;;;3.08;2.88;;;27.50;71.10;;;;;;5014988;28;20323;-51
2022/05/19 11:57:55;;;;;;;3.05;2.88;;;27.60;71.50;;;;;;5007700;28;20273;-53
2022/05/19 12:00:26;;;;;;;3.53;3.25;;;27.80;70.70;;;;;;5017100;28;20212;-54
2022/05/19 12:02:59;;;;;;;4.57;2.78;;;27.90;74.00;;;;;;5023411;28;20199;-50
2022/05/19 12:05:31;;;;;;;6.82;3.53;;;28.10;72.00;;;;;;5018458;28;20295;-53
2022/05/19 12:08:01;;;;;;;3.40;3.08;;;28.30;70.60;;;;;;5014817;28;20220;-51
2022/05/19 12:10:36;;;;;;;3.97;2.97;;;28.30;71.70;;;;;;5022731;28;20290;-53
2022/05/19 12:13:05;;;;;;;4.95;2.90;;;28.40;69.50;;;;;;5004104;28;20215;-53
2022/05/19 12:15:49;;;;;;;2.90;2.65;;;28.30;69.80;;;;;;5018058;28;20733;-51
2022/05/19 12:18:35;;;;;;;3.42;2.92;;;28.30;70.20;;;;;;5021064;28;20204;-51
2022/05/19 12:21:39;;;;;;;4.72;3.08;;;28.50;71.30;;;;;;5024774;28;20207;-54
2022/05/19 12:24:09;;;;;;;3.60;3.17;;;28.80;67.20;;;;;;5021680;28;20215;-48
2022/05/19 12:26:46;;;;;;;3.03;2.83;;;;;;;;;;5021216;28;20239;-51
2022/05/19 12:29:28;;;;;;;3.00;2.67;;;29.10;70.60;;;;;;5009919;28;20211;-48
2022/05/19 12:32:06;;;;;;;4.47;3.08;;;29.20;66.70;;;;;;5014150;28;20200;-49
2022/05/19 12:34:41;;;;;;;3.05;2.70;;;29.20;65.10;;;;;;5017278;28;20624;-53
2022/05/19 12:37:26;;;;;;;5.43;3.10;;;29.20;66.10;;;;;;5024454;28;20220;-49
2022/05/19 12:39:53;;;;;;;3.83;3.20;;;29.40;64.70;;;;;;5021866;28;20199;-48
2022/05/19 12:42:26;;;;;;;3.03;2.80;;;29.30;64.20;;;;;;5025192;28;20204;-46
2022/05/19 12:44:56;;;;;;;3.47;2.80;;;29.30;63.50;;;;;;5005054;28;20200;-48
2022/05/19 12:47:28;;;;;;;5.55;3.03;;;29.30;63.40;;;;;;5023991;28;20223;-53
2022/05/19 12:50:18;;;;;;;2.90;2.70;;;29.70;63.20;;;;;;5021980;28;20967;-48
2022/05/19 12:52:58;;;;;;;7.03;3.20;;;29.80;64.80;;;;;;5012551;28;20216;-48
2022/05/19 12:55:42;;;;;;;4.45;2.50;;;30.10;65.30;;;;;;5022899;28;20258;-50
2022/05/19 12:58:55;;;;;;;2.85;2.53;;;30.30;65.00;;;;;;5023791;28;20216;-47
2022/05/19 13:01:30;;;;;;;3.90;2.72;;;30.30;63.20;;;;;;4930295;28;20214;-51
2022/05/19 13:04:12;;;;;;;3.05;2.85;;;30.20;62.20;;;;;;5004818;28;20214;-49
2022/05/19 13:06:44;;;;;;;2.67;2.47;;;30.20;62.70;;;;;;5019333;28;20304;-54
2022/05/19 13:09:11;;;;;;;3.13;2.83;;;30.30;61.00;;;;;;5023724;28;20200;-53
2022/05/19 13:11:45;;;;;;;2.83;2.63;;;30.30;60.80;;;;;;5025271;28;20335;-51
2022/05/19 13:14:16;;;;;;;7.88;3.30;;;30.50;60.20;;;;;;5023596;28;20223;-48
2022/05/19 13:16:51;;;;;;;3.17;2.97;;;30.50;61.20;;;;;;4999585;28;20511;-49
2022/05/19 13:19:21;;;;;;;3.55;2.70;;;30.50;58.50;;;;;;5023991;28;20196;-54
2022/05/19 13:21:57;;;;;;;3.90;2.75;;;30.40;58.50;;;;;;5017785;28;20938;-53
2022/05/19 13:24:26;;;;;;;2.75;2.55;;;30.40;58.40;;;;;;5016118;28;20199;-52